createdAt,value
2023-04-17T00:00:19.097Z,11.68
2023-04-17T00:03:18.077Z,11.67
2023-04-17T00:06:00.251Z,11.68
2023-04-17T00:08:39.121Z,11.66
2023-04-17T00:15:47.205Z,11.56
2023-04-17T00:19:23.345Z,11.57
2023-04-17T00:22:19.306Z,11.55
2023-04-17T00:25:03.238Z,11.56
2023-04-17T00:27:30.467Z,11.56
2023-04-17T00:30:00.342Z,11.58
2023-04-17T00:32:30.640Z,11.56
2023-04-17T00:39:47.775Z,11.43
2023-04-17T00:42:23.575Z,11.39
2023-04-17T00:44:57.370Z,11.39
2023-04-17T00:47:30.801Z,11.44
2023-04-17T00:53:04.883Z,11.46
2023-04-17T00:55:32.487Z,11.47
2023-04-17T00:58:01.065Z,11.47
2023-04-17T01:00:31.369Z,11.48
2023-04-17T01:02:58.811Z,11.48
2023-04-17T01:05:57.168Z,11.48
2023-04-17T01:09:01.920Z,11.44
2023-04-17T01:11:44.494Z,11.42
2023-04-17T01:20:35.070Z,11.35
2023-04-17T01:23:17.140Z,11.34
2023-04-17T01:25:43.982Z,11.34
2023-04-17T01:32:04.533Z,11.38
2023-04-17T01:34:41.303Z,11.41
2023-04-17T01:37:18.577Z,11.43
2023-04-17T01:40:08.216Z,11.45
2023-04-17T01:46:52.417Z,11.40
2023-04-17T01:49:24.940Z,11.40
2023-04-17T01:55:20.474Z,11.30
2023-04-17T01:57:54.402Z,11.30
2023-04-17T02:00:30.142Z,11.34
2023-04-17T02:03:00.255Z,11.36
2023-04-17T02:05:59.371Z,11.42
2023-04-17T02:08:47.578Z,11.45
2023-04-17T02:11:29.575Z,11.45
2023-04-17T02:13:58.916Z,11.45
2023-04-17T02:17:09.802Z,11.48
2023-04-17T02:19:37.014Z,11.48
2023-04-17T02:22:32.720Z,11.45
2023-04-17T02:25:28.652Z,11.43
2023-04-17T02:28:02.104Z,11.38
2023-04-17T02:30:32.411Z,11.41
2023-04-17T02:33:02.873Z,11.46
2023-04-17T02:35:31.921Z,11.48
2023-04-17T02:38:02.086Z,11.48
2023-04-17T02:41:18.902Z,11.50
2023-04-17T02:43:56.803Z,11.45
2023-04-17T02:46:27.296Z,11.44
2023-04-17T02:48:56.194Z,11.38
2023-04-17T02:51:23.293Z,11.36
2023-04-17T02:58:17.381Z,11.24
2023-04-17T03:01:06.407Z,11.21
2023-04-17T03:03:38.847Z,11.17
2023-04-17T03:10:09.554Z,11.09
2023-04-17T03:12:42.803Z,11.06
2023-04-17T03:15:10.356Z,11.05
2023-04-17T03:17:46.401Z,11.03
2023-04-17T03:20:19.362Z,10.97
2023-04-17T03:22:52.756Z,10.94
2023-04-17T03:25:24.468Z,10.92
2023-04-17T03:27:56.474Z,10.90
2023-04-17T03:30:29.508Z,10.89
2023-04-17T03:33:02.090Z,10.89
2023-04-17T03:35:37.550Z,10.86
2023-04-17T03:38:17.052Z,10.84
2023-04-17T03:40:47.319Z,10.76
2023-04-17T03:43:26.779Z,10.69
2023-04-17T03:45:59.671Z,10.59
2023-04-17T03:49:02.808Z,10.55
2023-04-17T03:51:35.897Z,10.48
2023-04-17T03:54:19.839Z,10.46
2023-04-17T03:56:56.877Z,10.42
2023-04-17T04:02:29.454Z,10.32
2023-04-17T04:05:03.285Z,10.31
2023-04-17T04:07:36.345Z,10.34
2023-04-17T04:15:05.774Z,10.25
2023-04-17T04:17:41.604Z,10.20
2023-04-17T04:20:16.646Z,10.28
2023-04-17T04:22:44.857Z,10.39
2023-04-17T04:25:28.910Z,10.51
2023-04-17T04:32:09.841Z,10.57
2023-04-17T04:34:44.452Z,10.64
2023-04-17T04:37:15.938Z,10.72
2023-04-17T04:40:15.827Z,10.81
2023-04-17T04:48:45.768Z,11.05
2023-04-17T04:51:20.647Z,11.12
2023-04-17T04:57:03.190Z,11.21
2023-04-17T04:59:34.090Z,11.25
2023-04-17T05:02:32.117Z,11.30
2023-04-17T05:05:19.960Z,11.28
2023-04-17T05:08:05.901Z,11.27
2023-04-17T05:10:35.683Z,11.29
2023-04-17T05:13:11.818Z,11.31
2023-04-17T05:15:48.369Z,11.35
2023-04-17T05:18:29.870Z,11.40
2023-04-17T05:21:06.496Z,11.48
2023-04-17T05:23:34.577Z,11.51
2023-04-17T05:26:22.074Z,11.55
2023-04-17T05:28:57.589Z,11.52
2023-04-17T05:31:38.447Z,11.48
2023-04-17T05:34:28.650Z,11.57
2023-04-17T05:36:56.031Z,11.69
2023-04-17T05:39:38.590Z,11.83
2023-04-17T05:42:08.657Z,12.07
2023-04-17T05:44:35.940Z,12.25
2023-04-17T05:51:32.888Z,12.32
2023-04-17T05:54:00.158Z,12.37
2023-04-17T05:56:40.104Z,12.39
2023-04-17T06:00:29.562Z,12.45
2023-04-17T06:03:28.931Z,12.53
2023-04-17T06:06:19.412Z,12.71
2023-04-17T06:08:55.710Z,12.80
2023-04-17T06:11:23.583Z,12.99
2023-04-17T06:17:04.169Z,13.20
2023-04-17T06:19:37.023Z,13.47
2023-04-17T06:22:03.731Z,13.57
2023-04-17T06:24:47.996Z,13.89
2023-04-17T06:28:20.826Z,13.83
2023-04-17T06:31:07.132Z,13.57
2023-04-17T06:33:40.294Z,14.28
2023-04-17T06:36:39.764Z,15.46
2023-04-17T06:39:16.028Z,15.17
2023-04-17T06:41:52.033Z,14.58
2023-04-17T06:44:26.311Z,13.98
2023-04-17T06:47:17.231Z,13.59
2023-04-17T06:52:50.756Z,12.97
2023-04-17T06:55:54.759Z,12.79
2023-04-17T06:58:52.340Z,12.86
2023-04-17T07:01:23.114Z,13.48
2023-04-17T07:03:59.096Z,14.69
2023-04-17T07:06:39.544Z,15.75
2023-04-17T07:09:15.815Z,16.43
2023-04-17T07:11:45.688Z,16.91
2023-04-17T07:14:18.671Z,17.22
2023-04-17T07:16:51.793Z,16.65
2023-04-17T07:19:31.160Z,16.19
2023-04-17T07:21:58.842Z,15.68
2023-04-17T07:24:26.787Z,15.13
2023-04-17T08:29:56.801Z,19.06
2023-04-17T08:32:23.805Z,19.03
2023-04-17T08:34:50.657Z,18.97
2023-04-17T08:37:17.450Z,18.85
2023-04-17T08:39:44.454Z,19.34
2023-04-17T08:42:17.438Z,19.59
2023-04-17T08:44:46.431Z,19.60
2023-04-17T08:47:13.902Z,19.22
2023-04-17T08:49:43.797Z,19.03
2023-04-17T08:52:11.474Z,19.34
2023-04-17T08:54:39.092Z,21.54
2023-04-17T08:57:07.319Z,24.06
2023-04-17T08:59:34.425Z,25.19
2023-04-17T09:02:07.072Z,23.96
2023-04-17T09:04:41.992Z,22.67
2023-04-17T09:07:11.671Z,20.99
2023-04-17T09:09:51.882Z,19.21
2023-04-17T09:12:24.030Z,18.26
2023-04-17T09:14:51.455Z,17.69
2023-04-17T09:17:21.052Z,17.41
2023-04-17T09:20:12.436Z,17.26
2023-04-17T09:22:41.826Z,17.25
2023-04-17T09:25:21.448Z,17.25
2023-04-17T09:27:48.289Z,17.14
2023-04-17T09:30:16.693Z,16.99
2023-04-17T09:32:48.795Z,16.79
2023-04-17T09:35:28.201Z,16.53
2023-04-17T09:37:56.281Z,16.37
2023-04-17T09:40:25.343Z,16.33
2023-04-17T09:42:59.620Z,16.22
2023-04-17T09:45:33.032Z,16.17
2023-04-17T09:48:01.112Z,16.43
2023-04-17T09:50:28.805Z,16.70
2023-04-17T09:52:56.283Z,16.90
2023-04-17T09:55:25.198Z,17.02
2023-04-17T09:57:54.359Z,17.14
2023-04-17T10:00:23.815Z,17.16
2023-04-17T10:02:52.464Z,17.41
2023-04-17T10:05:26.017Z,17.91
2023-04-17T10:07:53.181Z,18.15
2023-04-17T10:10:27.247Z,18.25
2023-04-17T10:12:58.235Z,18.35
2023-04-17T10:15:26.141Z,18.30
2023-04-17T10:17:54.682Z,18.17
2023-04-17T10:20:32.758Z,18.04
2023-04-17T10:23:01.417Z,17.94
2023-04-17T10:25:29.273Z,17.83
2023-04-17T10:28:05.204Z,17.82
2023-04-17T10:30:57.640Z,17.81
2023-04-17T10:33:27.861Z,17.72
2023-04-17T10:35:55.742Z,17.51
2023-04-17T10:38:33.653Z,17.49
2023-04-17T10:41:08.472Z,17.68
2023-04-17T10:43:35.276Z,17.96
2023-04-17T10:46:06.015Z,18.00
2023-04-17T10:48:40.945Z,18.12
2023-04-17T10:51:29.227Z,18.40
2023-04-17T10:53:58.391Z,18.62
2023-04-17T10:56:30.778Z,18.76
2023-04-17T10:59:06.127Z,18.99
2023-04-17T11:01:58.332Z,19.33
2023-04-17T11:04:36.109Z,19.22
2023-04-17T11:07:03.539Z,19.17
2023-04-17T11:09:30.718Z,19.44
2023-04-17T11:12:03.984Z,19.68
2023-04-17T11:14:31.455Z,19.91
2023-04-17T11:16:58.178Z,20.59
2023-04-17T11:19:25.843Z,21.03
2023-04-17T11:21:54.274Z,21.34
2023-04-17T11:24:29.579Z,21.21
2023-04-17T11:26:59.782Z,21.27
2023-04-17T11:29:27.929Z,21.22
2023-04-17T11:31:56.623Z,21.16
2023-04-17T11:34:27.399Z,21.47
2023-04-17T11:36:57.170Z,21.84
2023-04-17T11:39:26.227Z,21.82
2023-04-17T11:41:53.186Z,21.84
2023-04-17T11:44:21.205Z,21.96
2023-04-17T11:46:52.924Z,22.25
2023-04-17T11:49:30.157Z,22.94
2023-04-17T11:52:00.131Z,23.38
2023-04-17T11:54:28.350Z,23.98
2023-04-17T11:57:05.619Z,24.81
2023-04-17T11:59:38.349Z,25.73
2023-04-17T12:02:09.976Z,26.49
2023-04-17T12:04:38.289Z,26.59
2023-04-17T12:07:07.017Z,26.50
2023-04-17T12:09:34.707Z,27.27
2023-04-17T12:12:04.368Z,26.82
2023-04-17T12:14:31.546Z,25.75
2023-04-17T12:16:58.659Z,24.80
2023-04-17T12:19:29.556Z,24.52
2023-04-17T12:21:57.360Z,23.82
2023-04-17T12:24:25.079Z,22.88
2023-04-17T12:26:52.936Z,22.29
2023-04-17T12:29:29.043Z,22.01
2023-04-17T12:32:03.823Z,21.72
2023-04-17T12:34:31.357Z,21.88
2023-04-17T12:36:58.190Z,22.30
2023-04-17T12:39:24.860Z,22.80
2023-04-17T12:41:51.602Z,23.24
2023-04-17T12:44:18.308Z,23.32
2023-04-17T12:46:47.282Z,23.03
2023-04-17T12:49:14.051Z,22.59
2023-04-17T12:51:41.333Z,22.19
2023-04-17T12:54:08.272Z,21.72
2023-04-17T12:56:34.929Z,21.27
2023-04-17T12:59:03.014Z,20.99
2023-04-17T13:01:30.126Z,20.68
2023-04-17T13:03:57.921Z,20.49
2023-04-17T13:06:25.287Z,20.10
2023-04-17T13:08:52.316Z,19.58
2023-04-17T13:11:19.107Z,19.27
2023-04-17T13:13:46.048Z,19.09
2023-04-17T13:16:12.795Z,18.79
2023-04-17T13:18:39.601Z,18.49
2023-04-17T13:21:06.572Z,18.32
2023-04-17T13:23:35.329Z,18.25
2023-04-17T13:26:02.113Z,18.19
2023-04-17T13:28:28.834Z,18.16
2023-04-17T13:30:56.380Z,18.20
2023-04-17T13:33:23.349Z,18.24
2023-04-17T13:35:53.015Z,18.26
2023-04-17T13:38:19.606Z,18.00
2023-04-17T13:40:46.265Z,17.81
2023-04-17T13:43:12.858Z,17.83
2023-04-17T13:45:40.551Z,18.00
2023-04-17T13:48:07.283Z,18.19
2023-04-17T13:50:34.078Z,18.40
2023-04-17T13:53:01.674Z,18.65
2023-04-17T13:55:29.319Z,18.81
2023-04-17T13:57:55.930Z,18.95
2023-04-17T14:00:22.637Z,19.14
2023-04-17T14:02:49.530Z,19.17
2023-04-17T14:05:16.524Z,19.18
2023-04-17T14:07:44.458Z,19.12
2023-04-17T14:10:11.138Z,19.11
2023-04-17T14:12:37.801Z,19.21
2023-04-17T14:15:05.218Z,19.33
2023-04-17T14:17:32.734Z,19.24
2023-04-17T14:19:59.544Z,19.15
2023-04-17T14:22:26.369Z,19.24
2023-04-17T14:24:53.048Z,19.34
2023-04-17T14:27:21.196Z,19.34
2023-04-17T14:29:48.285Z,19.47
2023-04-17T14:32:15.215Z,19.62
2023-04-17T14:34:42.026Z,19.76
2023-04-17T14:37:09.109Z,19.82
2023-04-17T14:39:37.123Z,19.85
2023-04-17T14:42:04.343Z,19.91
2023-04-17T14:44:31.536Z,20.01
2023-04-17T14:46:58.450Z,19.97
2023-04-17T14:49:25.698Z,19.77
2023-04-17T14:51:52.439Z,19.71
2023-04-17T14:54:19.202Z,19.63
2023-04-17T14:56:45.951Z,19.51
2023-04-17T14:59:13.149Z,19.50
2023-04-17T15:01:40.212Z,19.52
2023-04-17T15:04:07.354Z,19.14
2023-04-17T15:06:39.258Z,18.80
2023-04-17T15:09:08.849Z,18.65
2023-04-17T15:11:39.192Z,18.67
2023-04-17T15:14:13.042Z,18.56
2023-04-17T15:17:03.301Z,18.40
2023-04-17T15:19:30.915Z,18.39
2023-04-17T15:21:57.567Z,18.56
2023-04-17T15:24:24.384Z,18.53
2023-04-17T15:26:51.378Z,18.40
2023-04-17T15:29:18.141Z,18.30
2023-04-17T15:31:45.006Z,18.21
2023-04-17T15:34:13.517Z,17.99
2023-04-17T15:36:43.200Z,17.90
2023-04-17T15:39:10.591Z,17.89
2023-04-17T15:41:39.855Z,17.91
2023-04-17T15:44:06.557Z,17.84
2023-04-17T15:46:33.260Z,17.68
2023-04-17T15:49:07.558Z,17.50
2023-04-17T15:51:35.733Z,17.49
2023-04-17T15:54:02.448Z,17.41
2023-04-17T15:56:30.715Z,17.21
2023-04-17T15:58:57.357Z,17.06
2023-04-17T16:01:26.452Z,16.97
2023-04-17T16:03:53.515Z,16.91
2023-04-17T16:06:20.528Z,16.78
2023-04-17T16:08:48.820Z,16.57
2023-04-17T16:11:15.695Z,16.39
2023-04-17T16:13:42.588Z,16.29
2023-04-17T16:16:09.300Z,16.22
2023-04-17T16:18:39.242Z,16.22
2023-04-17T16:21:10.341Z,16.23
2023-04-17T16:23:40.507Z,16.22
2023-04-17T16:26:07.284Z,16.26
2023-04-17T16:28:36.155Z,16.21
2023-04-17T16:31:05.574Z,16.16
2023-04-17T16:33:32.597Z,16.02
2023-04-17T16:35:59.352Z,15.92
2023-04-17T16:38:27.754Z,15.92
2023-04-17T16:40:57.625Z,15.92
2023-04-17T16:43:24.981Z,15.92
2023-04-17T16:45:51.624Z,15.93
2023-04-17T16:48:19.848Z,15.97
2023-04-17T16:51:01.741Z,15.95
2023-04-17T16:53:33.955Z,15.72
2023-04-17T16:56:05.200Z,15.57
2023-04-17T16:58:43.521Z,15.52
2023-04-17T17:01:13.045Z,15.41
2023-04-17T17:03:39.866Z,15.34
2023-04-17T17:06:07.173Z,15.31
2023-04-17T17:08:33.944Z,15.26
2023-04-17T17:11:03.657Z,15.22
2023-04-17T17:13:31.054Z,15.23
2023-04-17T17:15:58.290Z,15.20
2023-04-17T17:18:24.975Z,15.12
2023-04-17T17:20:55.264Z,15.05
2023-04-17T17:23:22.420Z,14.99
2023-04-17T17:25:49.248Z,14.93
2023-04-17T17:28:17.355Z,14.91
2023-04-17T17:30:44.156Z,14.86
2023-04-17T17:33:10.937Z,14.86
2023-04-17T17:35:37.711Z,14.86
2023-04-17T17:38:04.373Z,14.87
2023-04-17T17:40:31.191Z,14.85
2023-04-17T17:42:57.855Z,14.81
2023-04-17T17:45:24.595Z,14.81
2023-04-17T17:47:51.367Z,14.80
2023-04-17T17:50:18.087Z,14.79
2023-04-17T17:52:44.908Z,14.79
2023-04-17T17:55:15.918Z,14.76
2023-04-17T17:57:49.227Z,14.76
2023-04-17T18:00:16.964Z,14.78
2023-04-17T18:02:46.677Z,14.79
2023-04-17T18:05:13.317Z,14.74
2023-04-17T18:07:41.038Z,14.67
2023-04-17T18:10:08.335Z,14.69
2023-04-17T18:12:35.130Z,14.68
2023-04-17T18:15:02.291Z,14.65
2023-04-17T18:17:29.078Z,14.66
2023-04-17T18:19:56.044Z,14.66
2023-04-17T18:22:58.910Z,14.60
2023-04-17T18:25:25.804Z,14.49
2023-04-17T18:27:52.577Z,14.47
2023-04-17T18:30:21.437Z,14.45
2023-04-17T18:32:48.307Z,14.44
2023-04-17T18:35:17.814Z,14.39
2023-04-17T18:37:47.495Z,14.37
2023-04-17T18:40:14.713Z,14.32
2023-04-17T18:42:42.427Z,14.27
2023-04-17T18:45:10.015Z,14.29
2023-04-17T18:47:36.760Z,14.26
2023-04-17T18:50:04.869Z,14.24
2023-04-17T18:52:31.616Z,14.21
2023-04-17T18:54:58.319Z,14.18
2023-04-17T18:57:26.128Z,14.16
2023-04-17T18:59:53.468Z,14.14
2023-04-17T19:02:20.242Z,14.15
2023-04-17T19:04:47.095Z,14.13
2023-04-17T19:07:13.912Z,14.14
2023-04-17T19:09:41.848Z,14.13
2023-04-17T19:12:08.703Z,14.13
2023-04-17T19:14:35.794Z,14.11
2023-04-17T19:17:02.628Z,14.10
2023-04-17T19:19:30.113Z,14.08
2023-04-17T19:21:56.867Z,14.06
2023-04-17T19:24:24.140Z,14.04
2023-04-17T19:26:50.877Z,14.01
2023-04-17T19:29:18.481Z,13.98
2023-04-17T19:31:45.145Z,13.96
2023-04-17T19:34:11.952Z,13.95
2023-04-17T19:36:38.708Z,13.92
2023-04-17T19:39:05.792Z,13.90
2023-04-17T19:41:32.582Z,13.90
2023-04-17T19:43:59.408Z,13.87
2023-04-17T19:46:27.615Z,13.89
2023-04-17T19:48:54.617Z,13.89
2023-04-17T19:51:21.445Z,13.88
2023-04-17T19:53:50.842Z,13.88
2023-04-17T19:56:17.581Z,13.88
2023-04-17T19:58:46.573Z,13.89
2023-04-17T20:01:14.329Z,13.89
2023-04-17T20:03:42.316Z,13.86
2023-04-17T20:06:09.384Z,13.84
2023-04-17T20:08:36.151Z,13.80
2023-04-17T20:11:04.455Z,13.78
2023-04-17T20:13:31.141Z,13.76
2023-04-17T20:15:59.369Z,13.75
2023-04-17T20:18:26.178Z,13.76
2023-04-17T20:20:52.957Z,13.75
2023-04-17T20:23:19.669Z,13.76
2023-04-17T20:25:46.623Z,13.74
2023-04-17T20:28:13.370Z,13.74
2023-04-17T20:30:40.015Z,13.74
2023-04-17T20:33:06.824Z,13.73
2023-04-17T20:35:33.802Z,13.73
2023-04-17T20:38:00.571Z,13.71
2023-04-17T20:40:27.290Z,13.70
2023-04-17T20:42:53.980Z,13.67
2023-04-17T20:45:20.942Z,13.65
2023-04-17T20:47:56.608Z,13.65
2023-04-17T20:50:25.494Z,13.63
2023-04-17T20:52:52.204Z,13.60
2023-04-17T20:55:20.018Z,13.58
2023-04-17T20:57:47.086Z,13.57
2023-04-17T21:00:14.157Z,13.56
2023-04-17T21:02:41.212Z,13.54
2023-04-17T21:05:08.312Z,13.55
2023-04-17T21:07:35.590Z,13.54
2023-04-17T21:10:02.633Z,13.54
2023-04-17T21:12:29.520Z,13.52
2023-04-17T21:14:56.129Z,13.53
2023-04-17T21:17:22.901Z,13.52
2023-04-17T21:19:49.672Z,13.52
2023-04-17T21:22:16.482Z,13.51
2023-04-17T21:24:43.187Z,13.48
2023-04-17T21:27:13.318Z,13.47
2023-04-17T21:29:40.976Z,13.46
2023-04-17T21:32:07.689Z,13.44
2023-04-17T21:34:34.338Z,13.42
2023-04-17T21:37:05.029Z,13.43
2023-04-17T21:39:33.200Z,13.42
2023-04-17T21:42:00.673Z,13.43
2023-04-17T21:44:27.708Z,13.49
2023-04-17T21:46:54.397Z,13.58
2023-04-17T21:49:23.288Z,13.59
2023-04-17T21:51:50.042Z,13.60
2023-04-17T21:54:16.966Z,13.58
2023-04-17T21:56:43.609Z,13.53
2023-04-17T21:59:10.319Z,13.47
2023-04-17T22:01:37.113Z,13.40
2023-04-17T22:04:04.034Z,13.35
2023-04-17T22:06:30.874Z,13.34
2023-04-17T22:08:57.810Z,13.31
2023-04-17T22:11:24.514Z,13.29
2023-04-17T22:13:51.109Z,13.25
2023-04-17T22:16:17.878Z,13.22
2023-04-17T22:18:45.269Z,13.19
2023-04-17T22:21:12.792Z,13.16
2023-04-17T22:23:39.405Z,13.14
2023-04-17T22:26:06.088Z,13.16
2023-04-17T22:28:32.747Z,13.19
2023-04-17T22:30:59.651Z,13.19
2023-04-17T22:33:26.481Z,13.19
2023-04-17T22:35:53.379Z,13.22
2023-04-17T22:38:21.121Z,13.17
2023-04-17T22:40:48.409Z,13.10
2023-04-17T22:43:15.352Z,13.06
2023-04-17T22:45:42.802Z,13.08
2023-04-17T22:48:09.487Z,13.07
2023-04-17T22:50:37.738Z,13.06
2023-04-17T22:53:05.689Z,13.04
2023-04-17T22:55:32.892Z,13.01
2023-04-17T22:58:01.518Z,12.98
2023-04-17T23:00:30.482Z,12.97
2023-04-17T23:02:57.436Z,12.96
2023-04-17T23:05:24.460Z,12.94
2023-04-17T23:07:51.256Z,12.92
2023-04-17T23:10:19.258Z,12.91
2023-04-17T23:12:46.222Z,12.88
2023-04-17T23:15:13.171Z,12.86
2023-04-17T23:17:40.221Z,12.83
2023-04-17T23:20:07.396Z,12.76
2023-04-17T23:22:34.226Z,12.78
2023-04-17T23:25:00.883Z,12.85
2023-04-17T23:27:27.678Z,12.84
2023-04-17T23:29:54.361Z,12.77
2023-04-17T23:32:21.329Z,12.72
2023-04-17T23:34:50.976Z,12.68
2023-04-17T23:37:17.680Z,12.65
2023-04-17T23:39:44.370Z,12.64
2023-04-17T23:42:11.147Z,12.64
2023-04-17T23:44:37.906Z,12.64
2023-04-17T23:47:04.848Z,12.63
2023-04-17T23:49:31.736Z,12.64
2023-04-17T23:51:58.463Z,12.63
2023-04-17T23:54:25.544Z,12.59
2023-04-17T23:56:52.384Z,12.55
2023-04-17T23:59:19.261Z,12.55
